PWSweather.com
Personal Weather Stations
Station Observations
ISARDEGN48
BittiIT 08021

BittiIT 08021

Lat: 40.4805, Lon: 9.3887

Elevation: 1804

Station Type: La Crosse WS2355

http://meteobitti.altervista.org

High Low Average
Temperature 55.2°F12.9°C 45.7°F7.6°C 50.0°F10.0°C
Dew Point 49.4°F9.7°C 38.7°F3.7°C 45.1°F7.3°C
Winds 25.1 mph 40.4 kmh Calm Calm 8.0 mph S12.9 kmh S
Wind Gusts 31.8 mph51.2 kmh 1.6 mph2.6 kmh 14.0 mph22.5 kmh
Humidity 88% 73% 83%
Pressure 29.64 in1003.7 mb 29.48 in998.3 mb -
Precipitation 0.39 in9.9 mm - -
Hour Temp Dew Point Humidity Winds Wind Gusts Pressure Precip Precip Rate Daily Precip Total
12:00 AM 52.9°F11.6°C 49.1°F9.5°C 87% Calm Calm 4.0 mph6.4 kmh 29.57 in1001.4 mb 0.02 in0.5 mm 0.00 in0.0 mm 0.02 in0.5 mm
12:05 AM 52.9°F11.6°C 49.1°F9.5°C 87% 0.9 mph NW1.4 kmh NW 3.4 mph5.5 kmh 29.57 in1001.4 mb 0.02 in0.5 mm 0.00 in0.0 mm 0.02 in0.5 mm
12:10 AM 53.2°F11.8°C 49.1°F9.5°C 86% 1.8 mph NW2.9 kmh NW 8.1 mph13.0 kmh 29.57 in1001.4 mb 0.02 in0.5 mm 0.00 in0.0 mm 0.02 in0.5 mm
12:15 AM 53.2°F11.8°C 49.1°F9.5°C 86% 3.8 mph WSW6.1 kmh WSW 8.1 mph13.0 kmh 29.57 in1001.4 mb 0.02 in0.5 mm 0.00 in0.0 mm 0.02 in0.5 mm
12:20 AM 53.4°F11.9°C 49.3°F9.6°C 86% Calm Calm 6.7 mph10.8 kmh 29.56 in1001.0 mb 0.00 in0.0 mm 0.00 in0.0 mm 0.02 in0.5 mm
12:25 AM 53.4°F11.9°C 49.0°F9.4°C 85% 1.3 mph W2.1 kmh W 6.7 mph10.8 kmh 29.56 in1001.0 mb 0.00 in0.0 mm 0.00 in0.0 mm 0.02 in0.5 mm
12:30 AM 53.4°F11.9°C 48.7°F9.3°C 84% 2.5 mph W4.0 kmh W 6.7 mph10.8 kmh 29.56 in1001.0 mb 0.00 in0.0 mm 0.00 in0.0 mm 0.02 in0.5 mm
12:35 AM 53.8°F12.1°C 49.0°F9.4°C 84% 1.6 mph WSW2.6 kmh WSW 6.5 mph10.5 kmh 29.56 in1001.0 mb 0.00 in0.0 mm 0.00 in0.0 mm 0.02 in0.5 mm
12:40 AM 53.8°F12.1°C 49.0°F9.4°C 84% 4.3 mph N6.9 kmh N 6.3 mph10.1 kmh 29.55 in1000.7 mb 0.00 in0.0 mm 0.00 in0.0 mm 0.02 in0.5 mm
12:45 AM 53.8°F12.1°C 48.7°F9.3°C 83% Calm Calm 6.5 mph10.5 kmh 29.55 in1000.7 mb 0.00 in0.0 mm 0.00 in0.0 mm 0.02 in0.5 mm
12:50 AM 53.8°F12.1°C 48.7°F9.3°C 83% 1.6 mph NNW2.6 kmh NNW 6.5 mph10.5 kmh 29.55 in1000.7 mb 0.00 in0.0 mm 0.00 in0.0 mm 0.02 in0.5 mm
12:55 AM 53.8°F12.1°C 48.7°F9.3°C 83% Calm Calm 3.4 mph5.5 kmh 29.55 in1000.7 mb 0.00 in0.0 mm 0.00 in0.0 mm 0.02 in0.5 mm
01:00 AM 53.8°F12.1°C 48.7°F9.3°C 83% Calm Calm 2.5 mph4.0 kmh 29.55 in1000.7 mb 0.00 in0.0 mm 0.00 in0.0 mm 0.02 in0.5 mm
01:05 AM 53.4°F11.9°C 48.7°F9.3°C 84% Calm Calm 1.6 mph2.6 kmh 29.55 in1000.7 mb 0.00 in0.0 mm 0.00 in0.0 mm 0.02 in0.5 mm
01:10 AM 53.4°F11.9°C 48.7°F9.3°C 84% 1.3 mph SE2.1 kmh SE 2.5 mph4.0 kmh 29.55 in1000.7 mb 0.00 in0.0 mm 0.00 in0.0 mm 0.02 in0.5 mm
01:15 AM 53.2°F11.8°C 48.5°F9.2°C 84% 2.2 mph ENE3.5 kmh ENE 2.5 mph4.0 kmh 29.55 in1000.7 mb 0.00 in0.0 mm 0.00 in0.0 mm 0.02 in0.5 mm
01:20 AM 53.2°F11.8°C 48.5°F9.2°C 84% 3.1 mph W5.0 kmh W 4.0 mph6.4 kmh 29.55 in1000.7 mb 0.00 in0.0 mm 0.00 in0.0 mm 0.02 in0.5 mm
01:25 AM 53.4°F11.9°C 48.7°F9.3°C 84% 2.7 mph WNW4.3 kmh WNW 4.0 mph6.4 kmh 29.55 in1000.7 mb 0.00 in0.0 mm 0.00 in0.0 mm 0.02 in0.5 mm
01:30 AM 53.4°F11.9°C 48.7°F9.3°C 84% 1.8 mph NNW2.9 kmh NNW 6.3 mph10.1 kmh 29.55 in1000.7 mb 0.00 in0.0 mm 0.00 in0.0 mm 0.02 in0.5 mm
01:35 AM 53.4°F11.9°C 48.4°F9.1°C 83% 2.2 mph NNW3.5 kmh NNW 6.5 mph10.5 kmh 29.55 in1000.7 mb 0.02 in0.5 mm 0.24 in6.1 mm 0.02 in0.5 mm
01:40 AM 53.4°F11.9°C 48.7°F9.3°C 84% Calm Calm 6.5 mph10.5 kmh 29.54 in1000.3 mb 0.02 in0.5 mm 0.00 in0.0 mm 0.02 in0.5 mm
01:45 AM 53.4°F11.9°C 48.7°F9.3°C 84% 1.3 mph N2.1 kmh N 4.3 mph6.9 kmh 29.54 in1000.3 mb 0.04 in1.0 mm 0.24 in6.1 mm 0.04 in1.0 mm
01:50 AM 53.4°F11.9°C 48.7°F9.3°C 84% Calm Calm 3.4 mph5.5 kmh 29.54 in1000.3 mb 0.04 in1.0 mm 0.00 in0.0 mm 0.04 in1.0 mm
01:55 AM 53.4°F11.9°C 48.7°F9.3°C 84% Calm Calm 3.8 mph6.1 kmh 29.54 in1000.3 mb 0.04 in1.0 mm 0.00 in0.0 mm 0.04 in1.0 mm
02:00 AM 53.2°F11.8°C 48.5°F9.2°C 84% 2.5 mph SE4.0 kmh SE 3.8 mph6.1 kmh 29.53 in1000.0 mb 0.04 in1.0 mm 0.00 in0.0 mm 0.04 in1.0 mm
02:05 AM 53.2°F11.8°C 48.5°F9.2°C 84% 0.9 mph E1.4 kmh E 2.5 mph4.0 kmh 29.53 in1000.0 mb 0.06 in1.5 mm 0.24 in6.1 mm 0.06 in1.5 mm
02:10 AM 52.9°F11.6°C 48.5°F9.2°C 85% Calm Calm 2.5 mph4.0 kmh 29.54 in1000.3 mb 0.06 in1.5 mm 0.00 in0.0 mm 0.06 in1.5 mm
02:15 AM 52.9°F11.6°C 48.5°F9.2°C 85% Calm Calm 2.0 mph3.2 kmh 29.54 in1000.3 mb 0.08 in2.0 mm 0.24 in6.1 mm 0.08 in2.0 mm
02:20 AM 52.9°F11.6°C 48.8°F9.3°C 86% Calm Calm 2.5 mph4.0 kmh 29.54 in1000.3 mb 0.10 in2.5 mm 0.24 in6.1 mm 0.10 in2.5 mm
02:25 AM 52.7°F11.5°C 48.6°F9.2°C 86% Calm Calm 2.5 mph4.0 kmh 29.54 in1000.3 mb 0.12 in3.0 mm 0.24 in6.1 mm 0.12 in3.0 mm
02:30 AM 52.7°F11.5°C 48.6°F9.2°C 86% 2.2 mph SSE3.5 kmh SSE 2.2 mph3.5 kmh 29.54 in1000.3 mb 0.10 in2.5 mm 0.00 in0.0 mm 0.12 in3.0 mm
02:35 AM 52.7°F11.5°C 48.9°F9.4°C 87% 6.3 mph S10.1 kmh S 10.3 mph16.6 kmh 29.54 in1000.3 mb 0.12 in3.0 mm 0.24 in6.1 mm 0.14 in3.6 mm
02:40 AM 52.9°F11.6°C 49.4°F9.7°C 88% 14.1 mph SSW22.7 kmh SSW 17.4 mph28.0 kmh 29.54 in1000.3 mb 0.12 in3.0 mm 0.00 in0.0 mm 0.16 in4.1 mm
02:45 AM 52.9°F11.6°C 49.4°F9.7°C 88% 10.5 mph SSW16.9 kmh SSW 19.2 mph30.9 kmh 29.53 in1000.0 mb 0.12 in3.0 mm 0.00 in0.0 mm 0.16 in4.1 mm
02:50 AM 52.9°F11.6°C 49.1°F9.5°C 87% 7.8 mph SSW12.6 kmh SSW 19.2 mph30.9 kmh 29.52 in999.7 mb 0.14 in3.6 mm 0.24 in6.1 mm 0.18 in4.6 mm
02:55 AM 52.9°F11.6°C 49.1°F9.5°C 87% 12.5 mph SSW20.1 kmh SSW 16.8 mph27.0 kmh 29.52 in999.7 mb 0.14 in3.6 mm 0.00 in0.0 mm 0.18 in4.6 mm
03:00 AM 52.9°F11.6°C 48.8°F9.3°C 86% 8.3 mph SSW13.4 kmh SSW 16.8 mph27.0 kmh 29.52 in999.7 mb 0.14 in3.6 mm 0.00 in0.0 mm 0.18 in4.6 mm
03:05 AM 52.9°F11.6°C 48.8°F9.3°C 86% 5.4 mph SSW8.7 kmh SSW 10.5 mph16.9 kmh 29.52 in999.7 mb 0.12 in3.0 mm 0.00 in0.0 mm 0.18 in4.6 mm
03:10 AM 52.9°F11.6°C 48.8°F9.3°C 86% 6.9 mph SSW11.1 kmh SSW 18.3 mph29.5 kmh 29.52 in999.7 mb 0.08 in2.0 mm 0.00 in0.0 mm 0.18 in4.6 mm
03:15 AM 52.5°F11.4°C 48.4°F9.1°C 86% 8.3 mph SSW13.4 kmh SSW 18.3 mph29.5 kmh 29.52 in999.7 mb 0.10 in2.5 mm 0.24 in6.1 mm 0.20 in5.1 mm
03:20 AM 52.3°F11.3°C 48.5°F9.2°C 87% 11.2 mph SSW18.0 kmh SSW 19.5 mph31.4 kmh 29.53 in1000.0 mb 0.08 in2.0 mm 0.00 in0.0 mm 0.20 in5.1 mm
03:25 AM 52.3°F11.3°C 48.5°F9.2°C 87% 8.7 mph SSW14.0 kmh SSW 19.5 mph31.4 kmh 29.52 in999.7 mb 0.08 in2.0 mm 0.00 in0.0 mm 0.20 in5.1 mm
03:30 AM 52.3°F11.3°C 48.5°F9.2°C 87% 12.8 mph SSW20.6 kmh SSW 19.0 mph30.6 kmh 29.52 in999.7 mb 0.04 in1.0 mm 0.00 in0.0 mm 0.20 in5.1 mm
03:35 AM 52.3°F11.3°C 48.5°F9.2°C 87% 8.7 mph SSW14.0 kmh SSW 19.0 mph30.6 kmh 29.52 in999.7 mb 0.04 in1.0 mm 0.00 in0.0 mm 0.20 in5.1 mm
03:40 AM 52.3°F11.3°C 48.5°F9.2°C 87% 14.3 mph SSW23.0 kmh SSW 18.3 mph29.5 kmh 29.52 in999.7 mb 0.02 in0.5 mm 0.00 in0.0 mm 0.20 in5.1 mm
03:45 AM 52.3°F11.3°C 48.2°F9.0°C 86% 12.8 mph SSW20.6 kmh SSW 15.9 mph25.6 kmh 29.52 in999.7 mb 0.02 in0.5 mm 0.00 in0.0 mm 0.20 in5.1 mm
03:50 AM 52.3°F11.3°C 48.5°F9.2°C 87% 13.9 mph SSW22.4 kmh SSW 15.9 mph25.6 kmh 29.52 in999.7 mb 0.04 in1.0 mm 0.24 in6.1 mm 0.22 in5.6 mm
03:55 AM 52.2°F11.2°C 48.4°F9.1°C 87% 7.8 mph SSW12.6 kmh SSW 14.5 mph23.3 kmh 29.52 in999.7 mb 0.04 in1.0 mm 0.00 in0.0 mm 0.22 in5.6 mm
04:00 AM 52.0°F11.1°C 48.2°F9.0°C 87% 6.9 mph SSW11.1 kmh SSW 18.1 mph29.1 kmh 29.51 in999.3 mb 0.04 in1.0 mm 0.00 in0.0 mm 0.22 in5.6 mm
04:05 AM 51.6°F10.9°C 48.1°F8.9°C 88% 10.5 mph SSW16.9 kmh SSW 12.3 mph19.8 kmh 29.51 in999.3 mb 0.04 in1.0 mm 0.00 in0.0 mm 0.22 in5.6 mm
04:10 AM 51.6°F10.9°C 48.1°F8.9°C 88% 7.2 mph SSW11.6 kmh SSW 13.4 mph21.6 kmh 29.51 in999.3 mb 0.02 in0.5 mm 0.00 in0.0 mm 0.22 in5.6 mm
04:15 AM 51.6°F10.9°C 48.1°F8.9°C 88% 5.1 mph SSW8.2 kmh SSW 13.4 mph21.6 kmh 29.51 in999.3 mb 0.02 in0.5 mm 0.00 in0.0 mm 0.22 in5.6 mm
04:20 AM 51.4°F10.8°C 47.9°F8.8°C 88% 11.4 mph SSW18.3 kmh SSW 11.6 mph18.7 kmh 29.50 in999.0 mb 0.02 in0.5 mm 0.00 in0.0 mm 0.22 in5.6 mm
04:25 AM 51.3°F10.7°C 47.5°F8.6°C 87% 9.4 mph SSW15.1 kmh SSW 11.9 mph19.2 kmh 29.50 in999.0 mb 0.02 in0.5 mm 0.00 in0.0 mm 0.22 in5.6 mm
04:30 AM 51.3°F10.7°C 47.5°F8.6°C 87% 8.9 mph SSW14.3 kmh SSW 14.8 mph23.8 kmh 29.50 in999.0 mb 0.02 in0.5 mm 0.00 in0.0 mm 0.22 in5.6 mm
04:35 AM 51.3°F10.7°C 47.5°F8.6°C 87% Calm Calm 14.8 mph23.8 kmh 29.49 in998.6 mb 0.02 in0.5 mm 0.00 in0.0 mm 0.22 in5.6 mm
04:40 AM 51.1°F10.6°C 47.3°F8.5°C 87% 2.5 mph SW4.0 kmh SW 10.3 mph16.6 kmh 29.48 in998.3 mb 0.00 in0.0 mm 0.00 in0.0 mm 0.22 in5.6 mm
04:45 AM 51.1°F10.6°C 47.3°F8.5°C 87% 5.6 mph SW9.0 kmh SW 5.6 mph9.0 kmh 29.48 in998.3 mb 0.00 in0.0 mm 0.00 in0.0 mm 0.22 in5.6 mm
04:50 AM 50.9°F10.5°C 47.1°F8.4°C 87% 4.7 mph SW7.6 kmh SW 11.9 mph19.2 kmh 29.49 in998.6 mb 0.00 in0.0 mm 0.00 in0.0 mm 0.22 in5.6 mm
04:55 AM 50.7°F10.4°C 46.9°F8.3°C 87% 10.1 mph SW16.3 kmh SW 11.9 mph19.2 kmh 29.49 in998.6 mb 0.00 in0.0 mm 0.00 in0.0 mm 0.22 in5.6 mm
05:00 AM 50.9°F10.5°C 47.1°F8.4°C 87% 12.5 mph SSW20.1 kmh SSW 15.2 mph24.5 kmh 29.50 in999.0 mb 0.00 in0.0 mm 0.00 in0.0 mm 0.22 in5.6 mm
05:05 AM 50.9°F10.5°C 47.1°F8.4°C 87% 10.5 mph SSW16.9 kmh SSW 12.6 mph20.3 kmh 29.50 in999.0 mb 0.00 in0.0 mm 0.00 in0.0 mm 0.22 in5.6 mm
05:10 AM 50.9°F10.5°C 47.1°F8.4°C 87% 8.9 mph SSW14.3 kmh SSW 12.6 mph20.3 kmh 29.50 in999.0 mb 0.00 in0.0 mm 0.00 in0.0 mm 0.22 in5.6 mm
05:15 AM 50.9°F10.5°C 47.1°F8.4°C 87% 12.1 mph SSW19.5 kmh SSW 12.1 mph19.5 kmh 29.50 in999.0 mb 0.00 in0.0 mm 0.00 in0.0 mm 0.22 in5.6 mm
05:20 AM 50.9°F10.5°C 47.1°F8.4°C 87% 3.4 mph SSW5.5 kmh SSW 12.1 mph19.5 kmh 29.50 in999.0 mb 0.00 in0.0 mm 0.00 in0.0 mm 0.22 in5.6 mm
05:25 AM 50.9°F10.5°C 47.1°F8.4°C 87% 4.0 mph SSW6.4 kmh SSW 10.7 mph17.2 kmh 29.50 in999.0 mb 0.00 in0.0 mm 0.00 in0.0 mm 0.22 in5.6 mm
05:30 AM 50.7°F10.4°C 46.9°F8.3°C 87% 3.1 mph SSW5.0 kmh SSW 10.5 mph16.9 kmh 29.51 in999.3 mb 0.00 in0.0 mm 0.00 in0.0 mm 0.22 in5.6 mm
05:35 AM 50.7°F10.4°C 46.9°F8.3°C 87% 3.6 mph SSW5.8 kmh SSW 10.5 mph16.9 kmh 29.51 in999.3 mb 0.00 in0.0 mm 0.00 in0.0 mm 0.22 in5.6 mm
05:40 AM 50.7°F10.4°C 46.9°F8.3°C 87% 2.5 mph SW4.0 kmh SW 7.4 mph11.9 kmh 29.51 in999.3 mb 0.00 in0.0 mm 0.00 in0.0 mm 0.22 in5.6 mm
05:45 AM 50.5°F10.3°C 46.7°F8.2°C 87% 5.8 mph SW9.3 kmh SW 7.4 mph11.9 kmh 29.52 in999.7 mb 0.00 in0.0 mm 0.00 in0.0 mm 0.22 in5.6 mm
05:50 AM 50.4°F10.2°C 46.9°F8.3°C 88% 5.1 mph SW8.2 kmh SW 7.6 mph12.2 kmh 29.52 in999.7 mb 0.00 in0.0 mm 0.00 in0.0 mm 0.22 in5.6 mm
05:55 AM 50.4°F10.2°C 46.9°F8.3°C 88% 6.5 mph SSW10.5 kmh SSW 9.8 mph15.8 kmh 29.52 in999.7 mb 0.00 in0.0 mm 0.00 in0.0 mm 0.22 in5.6 mm
06:00 AM 50.4°F10.2°C 46.9°F8.3°C 88% 5.8 mph SW9.3 kmh SW 9.8 mph15.8 kmh 29.52 in999.7 mb 0.00 in0.0 mm 0.00 in0.0 mm 0.22 in5.6 mm
06:05 AM 50.2°F10.1°C 46.7°F8.2°C 88% 7.2 mph SW11.6 kmh SW 9.2 mph14.8 kmh 29.52 in999.7 mb 0.00 in0.0 mm 0.00 in0.0 mm 0.22 in5.6 mm
06:10 AM 50.2°F10.1°C 46.7°F8.2°C 88% 8.3 mph SSW13.4 kmh SSW 9.2 mph14.8 kmh 29.52 in999.7 mb 0.00 in0.0 mm 0.00 in0.0 mm 0.22 in5.6 mm
06:15 AM 50.2°F10.1°C 46.7°F8.2°C 88% 5.1 mph SSW8.2 kmh SSW 9.8 mph15.8 kmh 29.52 in999.7 mb 0.00 in0.0 mm 0.00 in0.0 mm 0.22 in5.6 mm
06:20 AM 50.2°F10.1°C 46.7°F8.2°C 88% 9.2 mph SSW14.8 kmh SSW 14.3 mph23.0 kmh 29.52 in999.7 mb 0.00 in0.0 mm 0.00 in0.0 mm 0.22 in5.6 mm
06:25 AM 50.2°F10.1°C 46.4°F8.0°C 87% 5.1 mph SSW8.2 kmh SSW 14.3 mph23.0 kmh 29.52 in999.7 mb 0.00 in0.0 mm 0.00 in0.0 mm 0.22 in5.6 mm
06:30 AM 50.2°F10.1°C 46.4°F8.0°C 87% 6.9 mph SSW11.1 kmh SSW 11.9 mph19.2 kmh 29.52 in999.7 mb 0.00 in0.0 mm 0.00 in0.0 mm 0.22 in5.6 mm
06:35 AM 50.4°F10.2°C 46.3°F7.9°C 86% 7.6 mph SSW12.2 kmh SSW 13.6 mph21.9 kmh 29.52 in999.7 mb 0.00 in0.0 mm 0.00 in0.0 mm 0.22 in5.6 mm
06:40 AM 50.5°F10.3°C 46.4°F8.0°C 86% 5.4 mph SSW8.7 kmh SSW 13.6 mph21.9 kmh 29.52 in999.7 mb 0.00 in0.0 mm 0.00 in0.0 mm 0.22 in5.6 mm
06:45 AM 50.5°F10.3°C 46.1°F7.8°C 85% 7.2 mph SSW11.6 kmh SSW 17.4 mph28.0 kmh 29.52 in999.7 mb 0.00 in0.0 mm 0.00 in0.0 mm 0.22 in5.6 mm
06:50 AM 50.7°F10.4°C 46.3°F7.9°C 85% 7.4 mph SSW11.9 kmh SSW 17.4 mph28.0 kmh 29.52 in999.7 mb 0.00 in0.0 mm 0.00 in0.0 mm 0.22 in5.6 mm
06:55 AM 50.9°F10.5°C 46.2°F7.9°C 84% 7.4 mph SSW11.9 kmh SSW 15.7 mph25.3 kmh 29.53 in1000.0 mb 0.00 in0.0 mm 0.00 in0.0 mm 0.22 in5.6 mm
07:00 AM 51.1°F10.6°C 46.4°F8.0°C 84% 8.9 mph SSW14.3 kmh SSW 14.1 mph22.7 kmh 29.53 in1000.0 mb 0.00 in0.0 mm 0.00 in0.0 mm 0.22 in5.6 mm
07:05 AM 51.4°F10.8°C 46.7°F8.2°C 84% 9.8 mph SSW15.8 kmh SSW 13.6 mph21.9 kmh 29.53 in1000.0 mb 0.00 in0.0 mm 0.00 in0.0 mm 0.22 in5.6 mm
07:10 AM 51.3°F10.7°C 46.8°F8.2°C 85% 6.0 mph SSW9.7 kmh SSW 16.8 mph27.0 kmh 29.53 in1000.0 mb 0.00 in0.0 mm 0.00 in0.0 mm 0.22 in5.6 mm
07:15 AM 51.1°F10.6°C 46.7°F8.2°C 85% 13.6 mph SSW21.9 kmh SSW 16.8 mph27.0 kmh 29.53 in1000.0 mb 0.00 in0.0 mm 0.00 in0.0 mm 0.22 in5.6 mm
07:20 AM 50.9°F10.5°C 46.8°F8.2°C 86% 7.4 mph SSW11.9 kmh SSW 15.7 mph25.3 kmh 29.52 in999.7 mb 0.00 in0.0 mm 0.00 in0.0 mm 0.22 in5.6 mm
07:25 AM 50.7°F10.4°C 46.9°F8.3°C 87% 9.8 mph SSW15.8 kmh SSW 15.9 mph25.6 kmh 29.53 in1000.0 mb 0.00 in0.0 mm 0.00 in0.0 mm 0.22 in5.6 mm
07:30 AM 50.7°F10.4°C 46.9°F8.3°C 87% 9.6 mph SSW15.4 kmh SSW 16.6 mph26.7 kmh 29.53 in1000.0 mb 0.00 in0.0 mm 0.00 in0.0 mm 0.22 in5.6 mm
07:35 AM 50.7°F10.4°C 46.9°F8.3°C 87% 6.7 mph SSW10.8 kmh SSW 16.6 mph26.7 kmh 29.53 in1000.0 mb 0.00 in0.0 mm 0.00 in0.0 mm 0.22 in5.6 mm
07:40 AM 50.7°F10.4°C 46.9°F8.3°C 87% 9.6 mph SSW15.4 kmh SSW 18.1 mph29.1 kmh 29.53 in1000.0 mb 0.00 in0.0 mm 0.00 in0.0 mm 0.22 in5.6 mm
07:45 AM 50.7°F10.4°C 46.9°F8.3°C 87% 7.8 mph SSW12.6 kmh SSW 19.5 mph31.4 kmh 29.54 in1000.3 mb 0.00 in0.0 mm 0.00 in0.0 mm 0.22 in5.6 mm
07:50 AM 50.7°F10.4°C 46.9°F8.3°C 87% 7.4 mph SSW11.9 kmh SSW 19.5 mph31.4 kmh 29.53 in1000.0 mb 0.00 in0.0 mm 0.00 in0.0 mm 0.22 in5.6 mm
07:55 AM 50.7°F10.4°C 47.2°F8.4°C 88% 11.6 mph SSW18.7 kmh SSW 17.9 mph28.8 kmh 29.54 in1000.3 mb 0.00 in0.0 mm 0.00 in0.0 mm 0.22 in5.6 mm
08:00 AM 50.5°F10.3°C 47.0°F8.3°C 88% 8.7 mph SSW14.0 kmh SSW 17.9 mph28.8 kmh 29.52 in999.7 mb 0.00 in0.0 mm 0.00 in0.0 mm 0.22 in5.6 mm
08:05 AM 50.5°F10.3°C 47.0°F8.3°C 88% 9.2 mph SSW14.8 kmh SSW 14.8 mph23.8 kmh 29.52 in999.7 mb 0.00 in0.0 mm 0.00 in0.0 mm 0.22 in5.6 mm
08:10 AM 50.5°F10.3°C 47.0°F8.3°C 88% 5.4 mph SW8.7 kmh SW 14.8 mph23.8 kmh 29.52 in999.7 mb 0.02 in0.5 mm 0.24 in6.1 mm 0.24 in6.1 mm
08:15 AM 50.5°F10.3°C 47.0°F8.3°C 88% 7.8 mph SW12.6 kmh SW 12.5 mph20.1 kmh 29.52 in999.7 mb 0.02 in0.5 mm 0.00 in0.0 mm 0.24 in6.1 mm
08:20 AM 50.7°F10.4°C 47.2°F8.4°C 88% 8.7 mph SW14.0 kmh SW 10.5 mph16.9 kmh 29.52 in999.7 mb 0.02 in0.5 mm 0.00 in0.0 mm 0.24 in6.1 mm
08:25 AM 50.7°F10.4°C 47.2°F8.4°C 88% 3.8 mph SW6.1 kmh SW 10.7 mph17.2 kmh 29.52 in999.7 mb 0.02 in0.5 mm 0.00 in0.0 mm 0.24 in6.1 mm
08:30 AM 50.7°F10.4°C 47.2°F8.4°C 88% 12.5 mph SW20.1 kmh SW 12.5 mph20.1 kmh 29.52 in999.7 mb 0.02 in0.5 mm 0.00 in0.0 mm 0.24 in6.1 mm
08:35 AM 50.9°F10.5°C 47.4°F8.6°C 88% 10.7 mph SW17.2 kmh SW 13.0 mph20.9 kmh 29.52 in999.7 mb 0.02 in0.5 mm 0.00 in0.0 mm 0.24 in6.1 mm
08:40 AM 51.1°F10.6°C 47.3°F8.5°C 87% 9.4 mph SW15.1 kmh SW 13.0 mph20.9 kmh 29.52 in999.7 mb 0.02 in0.5 mm 0.00 in0.0 mm 0.24 in6.1 mm
08:45 AM 51.1°F10.6°C 47.3°F8.5°C 87% 6.0 mph SW9.7 kmh SW 13.0 mph20.9 kmh 29.52 in999.7 mb 0.02 in0.5 mm 0.00 in0.0 mm 0.24 in6.1 mm
08:50 AM 51.3°F10.7°C 47.5°F8.6°C 87% 10.5 mph SW16.9 kmh SW 13.4 mph21.6 kmh 29.52 in999.7 mb 0.02 in0.5 mm 0.00 in0.0 mm 0.24 in6.1 mm
08:55 AM 51.3°F10.7°C 47.5°F8.6°C 87% 11.6 mph SSW18.7 kmh SSW 13.4 mph21.6 kmh 29.52 in999.7 mb 0.02 in0.5 mm 0.00 in0.0 mm 0.24 in6.1 mm
09:00 AM 51.3°F10.7°C 47.2°F8.4°C 86% 11.2 mph SSW18.0 kmh SSW 14.5 mph23.3 kmh 29.52 in999.7 mb 0.02 in0.5 mm 0.00 in0.0 mm 0.24 in6.1 mm
09:05 AM 51.4°F10.8°C 47.3°F8.5°C 86% 2.9 mph SSW4.7 kmh SSW 14.5 mph23.3 kmh 29.52 in999.7 mb 0.02 in0.5 mm 0.00 in0.0 mm 0.24 in6.1 mm
09:10 AM 51.4°F10.8°C 47.3°F8.5°C 86% 3.8 mph SSW6.1 kmh SSW 13.9 mph22.4 kmh 29.53 in1000.0 mb 0.00 in0.0 mm 0.00 in0.0 mm 0.24 in6.1 mm
09:15 AM 51.4°F10.8°C 47.3°F8.5°C 86% 5.1 mph SW8.2 kmh SW 11.2 mph18.0 kmh 29.52 in999.7 mb 0.00 in0.0 mm 0.00 in0.0 mm 0.24 in6.1 mm
09:20 AM 51.4°F10.8°C 47.3°F8.5°C 86% 6.5 mph SW10.5 kmh SW 10.5 mph16.9 kmh 29.52 in999.7 mb 0.00 in0.0 mm 0.00 in0.0 mm 0.24 in6.1 mm
09:25 AM 51.4°F10.8°C 47.3°F8.5°C 86% Calm Calm 10.5 mph16.9 kmh 29.52 in999.7 mb 0.00 in0.0 mm 0.00 in0.0 mm 0.24 in6.1 mm
09:30 AM 51.6°F10.9°C 47.5°F8.6°C 86% Calm Calm 8.9 mph14.3 kmh 29.52 in999.7 mb 0.00 in0.0 mm 0.00 in0.0 mm 0.24 in6.1 mm
09:35 AM 51.6°F10.9°C 47.5°F8.6°C 86% 1.6 mph SE2.6 kmh SE 4.5 mph7.2 kmh 29.52 in999.7 mb 0.00 in0.0 mm 0.00 in0.0 mm 0.24 in6.1 mm
09:40 AM 51.8°F11.0°C 47.7°F8.7°C 86% 2.2 mph NE3.5 kmh NE 3.1 mph5.0 kmh 29.52 in999.7 mb 0.00 in0.0 mm 0.00 in0.0 mm 0.24 in6.1 mm
09:45 AM 52.0°F11.1°C 47.9°F8.8°C 86% 2.5 mph NE4.0 kmh NE 3.6 mph5.8 kmh 29.52 in999.7 mb 0.00 in0.0 mm 0.00 in0.0 mm 0.24 in6.1 mm
09:50 AM 52.2°F11.2°C 48.1°F8.9°C 86% Calm Calm 4.0 mph6.4 kmh 29.52 in999.7 mb 0.00 in0.0 mm 0.00 in0.0 mm 0.24 in6.1 mm
09:55 AM 52.2°F11.2°C 48.1°F8.9°C 86% 2.7 mph NE4.3 kmh NE 5.8 mph9.3 kmh 29.52 in999.7 mb 0.00 in0.0 mm 0.00 in0.0 mm 0.24 in6.1 mm
10:00 AM 52.3°F11.3°C 48.2°F9.0°C 86% 4.0 mph NE6.4 kmh NE 6.0 mph9.7 kmh 29.52 in999.7 mb 0.00 in0.0 mm 0.00 in0.0 mm 0.24 in6.1 mm
10:05 AM 52.5°F11.4°C 48.4°F9.1°C 86% 1.1 mph ENE1.8 kmh ENE 8.3 mph13.4 kmh 29.52 in999.7 mb 0.00 in0.0 mm 0.00 in0.0 mm 0.24 in6.1 mm
10:10 AM 52.5°F11.4°C 48.1°F8.9°C 85% 4.3 mph SSE6.9 kmh SSE 8.3 mph13.4 kmh 29.52 in999.7 mb 0.00 in0.0 mm 0.00 in0.0 mm 0.24 in6.1 mm
10:15 AM 52.9°F11.6°C 48.5°F9.2°C 85% 6.3 mph S10.1 kmh S 7.8 mph12.6 kmh 29.53 in1000.0 mb 0.00 in0.0 mm 0.00 in0.0 mm 0.24 in6.1 mm
10:20 AM 53.1°F11.7°C 48.7°F9.3°C 85% 10.3 mph S16.6 kmh S 14.5 mph23.3 kmh 29.53 in1000.0 mb 0.00 in0.0 mm 0.00 in0.0 mm 0.24 in6.1 mm
10:25 AM 53.2°F11.8°C 48.5°F9.2°C 84% 8.9 mph SSW14.3 kmh SSW 14.5 mph23.3 kmh 29.53 in1000.0 mb 0.00 in0.0 mm 0.00 in0.0 mm 0.24 in6.1 mm
10:30 AM 53.2°F11.8°C 48.5°F9.2°C 84% 6.7 mph SSW10.8 kmh SSW 13.6 mph21.9 kmh 29.53 in1000.0 mb 0.00 in0.0 mm 0.00 in0.0 mm 0.24 in6.1 mm
10:35 AM 53.2°F11.8°C 48.5°F9.2°C 84% 4.5 mph SSW7.2 kmh SSW 15.7 mph25.3 kmh 29.53 in1000.0 mb 0.00 in0.0 mm 0.00 in0.0 mm 0.24 in6.1 mm
10:40 AM 53.4°F11.9°C 49.0°F9.4°C 85% 7.4 mph SW11.9 kmh SW 15.7 mph25.3 kmh 29.53 in1000.0 mb 0.00 in0.0 mm 0.00 in0.0 mm 0.24 in6.1 mm
10:45 AM 53.6°F12.0°C 48.9°F9.4°C 84% 14.5 mph SW23.3 kmh SW 14.5 mph23.3 kmh 29.53 in1000.0 mb 0.00 in0.0 mm 0.00 in0.0 mm 0.24 in6.1 mm
10:50 AM 54.0°F12.2°C 49.2°F9.6°C 84% 12.8 mph SSW20.6 kmh SSW 17.4 mph28.0 kmh 29.53 in1000.0 mb 0.00 in0.0 mm 0.00 in0.0 mm 0.24 in6.1 mm
10:55 AM 54.1°F12.3°C 49.1°F9.5°C 83% 8.9 mph SSW14.3 kmh SSW 17.9 mph28.8 kmh 29.52 in999.7 mb 0.00 in0.0 mm 0.00 in0.0 mm 0.24 in6.1 mm
11:00 AM 54.3°F12.4°C 48.9°F9.4°C 82% 14.1 mph SSW22.7 kmh SSW 17.9 mph28.8 kmh 29.53 in1000.0 mb 0.00 in0.0 mm 0.00 in0.0 mm 0.24 in6.1 mm
11:05 AM 54.3°F12.4°C 48.9°F9.4°C 82% 8.1 mph SSW13.0 kmh SSW 16.3 mph26.2 kmh 29.52 in999.7 mb 0.00 in0.0 mm 0.00 in0.0 mm 0.24 in6.1 mm
11:10 AM 54.3°F12.4°C 48.6°F9.2°C 81% 13.4 mph SSW21.6 kmh SSW 16.3 mph26.2 kmh 29.52 in999.7 mb 0.00 in0.0 mm 0.00 in0.0 mm 0.24 in6.1 mm
11:15 AM 54.5°F12.5°C 48.8°F9.3°C 81% 6.3 mph SSW10.1 kmh SSW 17.9 mph28.8 kmh 29.52 in999.7 mb 0.00 in0.0 mm 0.00 in0.0 mm 0.24 in6.1 mm
11:20 AM 54.7°F12.6°C 48.9°F9.4°C 81% 18.3 mph SW29.5 kmh SW 18.3 mph29.5 kmh 29.52 in999.7 mb 0.00 in0.0 mm 0.00 in0.0 mm 0.24 in6.1 mm
11:25 AM 54.9°F12.7°C 49.1°F9.5°C 81% 9.6 mph SSW15.4 kmh SSW 18.3 mph29.5 kmh 29.52 in999.7 mb 0.00 in0.0 mm 0.00 in0.0 mm 0.24 in6.1 mm
11:30 AM 54.9°F12.7°C 49.1°F9.5°C 81% Calm Calm 15.9 mph25.6 kmh 29.52 in999.7 mb 0.00 in0.0 mm 0.00 in0.0 mm 0.24 in6.1 mm
11:35 AM 55.0°F12.8°C 49.3°F9.6°C 81% 6.0 mph SW9.7 kmh SW 11.9 mph19.2 kmh 29.52 in999.7 mb 0.00 in0.0 mm 0.00 in0.0 mm 0.24 in6.1 mm
11:40 AM 55.2°F12.9°C 49.4°F9.7°C 81% 7.8 mph SSW12.6 kmh SSW 12.8 mph20.6 kmh 29.51 in999.3 mb 0.00 in0.0 mm 0.00 in0.0 mm 0.24 in6.1 mm
11:45 AM 55.2°F12.9°C 49.4°F9.7°C 81% 3.8 mph SW6.1 kmh SW 14.8 mph23.8 kmh 29.52 in999.7 mb 0.00 in0.0 mm 0.00 in0.0 mm 0.24 in6.1 mm
11:50 AM 55.2°F12.9°C 49.4°F9.7°C 81% Calm Calm 14.8 mph23.8 kmh 29.52 in999.7 mb 0.00 in0.0 mm 0.00 in0.0 mm 0.24 in6.1 mm
11:55 AM 55.0°F12.8°C 49.3°F9.6°C 81% 3.6 mph SSW5.8 kmh SSW 13.2 mph21.2 kmh 29.51 in999.3 mb 0.00 in0.0 mm 0.00 in0.0 mm 0.24 in6.1 mm
12:00 PM 54.9°F12.7°C 49.4°F9.7°C 82% 3.8 mph S6.1 kmh S 12.1 mph19.5 kmh 29.53 in1000.0 mb 0.00 in0.0 mm 0.00 in0.0 mm 0.24 in6.1 mm
12:05 PM 53.4°F11.9°C 47.1°F8.4°C 79% 10.1 mph S16.3 kmh S 12.1 mph19.5 kmh 29.53 in1000.0 mb 0.02 in0.5 mm 0.24 in6.1 mm 0.26 in6.6 mm
12:10 PM 51.6°F10.9°C 46.0°F7.8°C 81% 8.1 mph S13.0 kmh S 18.6 mph29.9 kmh 29.53 in1000.0 mb 0.02 in0.5 mm 0.00 in0.0 mm 0.26 in6.6 mm
12:15 PM 50.5°F10.3°C 45.8°F7.7°C 84% 15.9 mph S25.6 kmh S 18.6 mph29.9 kmh 29.53 in1000.0 mb 0.04 in1.0 mm 0.24 in6.1 mm 0.29 in7.4 mm
12:20 PM 50.2°F10.1°C 45.5°F7.5°C 84% 15.4 mph S24.8 kmh S 18.3 mph29.5 kmh 29.53 in1000.0 mb 0.04 in1.0 mm 0.00 in0.0 mm 0.29 in7.4 mm
12:25 PM 49.8°F9.9°C 45.4°F7.4°C 85% 13.0 mph SSW20.9 kmh SSW 19.0 mph30.6 kmh 29.52 in999.7 mb 0.04 in1.0 mm 0.00 in0.0 mm 0.29 in7.4 mm
12:30 PM 49.8°F9.9°C 45.4°F7.4°C 85% 11.6 mph SSW18.7 kmh SSW 19.7 mph31.7 kmh 29.52 in999.7 mb 0.04 in1.0 mm 0.00 in0.0 mm 0.29 in7.4 mm
12:35 PM 49.8°F9.9°C 45.7°F7.6°C 86% 6.5 mph SSW10.5 kmh SSW 19.7 mph31.7 kmh 29.52 in999.7 mb 0.04 in1.0 mm 0.00 in0.0 mm 0.29 in7.4 mm
12:40 PM 49.8°F9.9°C 45.7°F7.6°C 86% 9.8 mph SSW15.8 kmh SSW 14.5 mph23.3 kmh 29.52 in999.7 mb 0.04 in1.0 mm 0.00 in0.0 mm 0.29 in7.4 mm
12:45 PM 49.8°F9.9°C 45.7°F7.6°C 86% 7.4 mph SSW11.9 kmh SSW 15.0 mph24.1 kmh 29.52 in999.7 mb 0.04 in1.0 mm 0.00 in0.0 mm 0.29 in7.4 mm
12:50 PM 50.2°F10.1°C 46.4°F8.0°C 87% 13.4 mph SSW21.6 kmh SSW 15.7 mph25.3 kmh 29.52 in999.7 mb 0.04 in1.0 mm 0.00 in0.0 mm 0.29 in7.4 mm
12:55 PM 50.7°F10.4°C 46.9°F8.3°C 87% 4.5 mph SSW7.2 kmh SSW 15.7 mph25.3 kmh 29.51 in999.3 mb 0.04 in1.0 mm 0.00 in0.0 mm 0.29 in7.4 mm
01:00 PM 51.4°F10.8°C 47.6°F8.7°C 87% 4.0 mph SSW6.4 kmh SSW 13.2 mph21.2 kmh 29.51 in999.3 mb 0.04 in1.0 mm 0.00 in0.0 mm 0.29 in7.4 mm
01:05 PM 52.0°F11.1°C 47.9°F8.8°C 86% 4.5 mph S7.2 kmh S 11.4 mph18.3 kmh 29.50 in999.0 mb 0.02 in0.5 mm 0.00 in0.0 mm 0.29 in7.4 mm
01:10 PM 52.2°F11.2°C 47.8°F8.8°C 85% 4.0 mph S6.4 kmh S 11.6 mph18.7 kmh 29.51 in999.3 mb 0.02 in0.5 mm 0.00 in0.0 mm 0.29 in7.4 mm
01:15 PM 52.3°F11.3°C 47.9°F8.8°C 85% 8.9 mph S14.3 kmh S 13.2 mph21.2 kmh 29.51 in999.3 mb 0.00 in0.0 mm 0.00 in0.0 mm 0.29 in7.4 mm
01:20 PM 52.5°F11.4°C 48.1°F8.9°C 85% 4.7 mph S7.6 kmh S 13.2 mph21.2 kmh 29.50 in999.0 mb 0.00 in0.0 mm 0.00 in0.0 mm 0.29 in7.4 mm
01:25 PM 52.9°F11.6°C 48.2°F9.0°C 84% 8.5 mph S13.7 kmh S 16.6 mph26.7 kmh 29.50 in999.0 mb 0.00 in0.0 mm 0.00 in0.0 mm 0.29 in7.4 mm
01:30 PM 53.2°F11.8°C 48.5°F9.2°C 84% 3.4 mph S5.5 kmh S 16.6 mph26.7 kmh 29.50 in999.0 mb 0.00 in0.0 mm 0.00 in0.0 mm 0.29 in7.4 mm
01:35 PM 53.4°F11.9°C 48.4°F9.1°C 83% 5.4 mph SSW8.7 kmh SSW 13.0 mph20.9 kmh 29.50 in999.0 mb 0.00 in0.0 mm 0.00 in0.0 mm 0.29 in7.4 mm
01:40 PM 53.4°F11.9°C 48.1°F8.9°C 82% 7.4 mph S11.9 kmh S 13.0 mph20.9 kmh 29.51 in999.3 mb 0.00 in0.0 mm 0.00 in0.0 mm 0.29 in7.4 mm
01:45 PM 53.2°F11.8°C 47.6°F8.7°C 81% 21.9 mph S35.2 kmh S 21.9 mph35.2 kmh 29.52 in999.7 mb 0.00 in0.0 mm 0.00 in0.0 mm 0.29 in7.4 mm
01:50 PM 52.3°F11.3°C 46.4°F8.0°C 80% 6.3 mph ESE10.1 kmh ESE 21.9 mph35.2 kmh 29.53 in1000.0 mb 0.02 in0.5 mm 0.24 in6.1 mm 0.31 in7.9 mm
01:55 PM 51.1°F10.6°C 45.9°F7.7°C 82% 3.4 mph E5.5 kmh E 19.0 mph30.6 kmh 29.54 in1000.3 mb 0.02 in0.5 mm 0.00 in0.0 mm 0.31 in7.9 mm
02:00 PM 50.4°F10.2°C 45.3°F7.4°C 83% 3.6 mph SE5.8 kmh SE 8.9 mph14.3 kmh 29.54 in1000.3 mb 0.02 in0.5 mm 0.00 in0.0 mm 0.31 in7.9 mm
02:05 PM 49.8°F9.9°C 45.1°F7.3°C 84% 2.0 mph SSE3.2 kmh SSE 8.9 mph14.3 kmh 29.54 in1000.3 mb 0.04 in1.0 mm 0.24 in6.1 mm 0.33 in8.4 mm
02:10 PM 49.6°F9.8°C 44.9°F7.2°C 84% 10.3 mph S16.6 kmh S 14.1 mph22.7 kmh 29.55 in1000.7 mb 0.06 in1.5 mm 0.24 in6.1 mm 0.35 in8.9 mm
02:15 PM 48.7°F9.3°C 43.4°F6.3°C 82% 6.9 mph S11.1 kmh S 18.8 mph30.3 kmh 29.55 in1000.7 mb 0.06 in1.5 mm 0.00 in0.0 mm 0.35 in8.9 mm
02:20 PM 48.4°F9.1°C 43.1°F6.2°C 82% 6.5 mph S10.5 kmh S 19.0 mph30.6 kmh 29.55 in1000.7 mb 0.06 in1.5 mm 0.00 in0.0 mm 0.35 in8.9 mm
02:25 PM 47.8°F8.8°C 42.2°F5.7°C 81% 8.1 mph S13.0 kmh S 20.8 mph33.5 kmh 29.55 in1000.7 mb 0.08 in2.0 mm 0.24 in6.1 mm 0.37 in9.4 mm
02:30 PM 47.5°F8.6°C 42.5°F5.8°C 83% 8.1 mph S13.0 kmh S 21.7 mph34.9 kmh 29.55 in1000.7 mb 0.08 in2.0 mm 0.00 in0.0 mm 0.37 in9.4 mm
02:35 PM 47.3°F8.5°C 42.4°F5.8°C 83% 5.8 mph SSW9.3 kmh SSW 21.7 mph34.9 kmh 29.54 in1000.3 mb 0.08 in2.0 mm 0.00 in0.0 mm 0.37 in9.4 mm
02:40 PM 47.7°F8.7°C 43.0°F6.1°C 84% 4.7 mph SSW7.6 kmh SSW 17.2 mph27.7 kmh 29.53 in1000.0 mb 0.08 in2.0 mm 0.00 in0.0 mm 0.37 in9.4 mm
02:45 PM 48.0°F8.9°C 43.7°F6.5°C 85% 9.8 mph SSW15.8 kmh SSW 15.9 mph25.6 kmh 29.52 in999.7 mb 0.06 in1.5 mm 0.00 in0.0 mm 0.37 in9.4 mm
02:50 PM 48.4°F9.1°C 44.0°F6.7°C 85% 10.3 mph S16.6 kmh S 21.7 mph34.9 kmh 29.53 in1000.0 mb 0.06 in1.5 mm 0.00 in0.0 mm 0.37 in9.4 mm
02:55 PM 48.4°F9.1°C 44.0°F6.7°C 85% 16.1 mph S25.9 kmh S 21.7 mph34.9 kmh 29.53 in1000.0 mb 0.06 in1.5 mm 0.00 in0.0 mm 0.37 in9.4 mm
03:00 PM 48.4°F9.1°C 44.0°F6.7°C 85% 23.0 mph S37.0 kmh S 25.5 mph41.0 kmh 29.53 in1000.0 mb 0.06 in1.5 mm 0.00 in0.0 mm 0.37 in9.4 mm
03:05 PM 48.2°F9.0°C 43.6°F6.4°C 84% 22.1 mph S35.6 kmh S 25.5 mph41.0 kmh 29.53 in1000.0 mb 0.04 in1.0 mm 0.00 in0.0 mm 0.37 in9.4 mm
03:10 PM 48.0°F8.9°C 42.7°F5.9°C 82% 21.0 mph S33.8 kmh S 25.7 mph41.4 kmh 29.53 in1000.0 mb 0.02 in0.5 mm 0.00 in0.0 mm 0.37 in9.4 mm
03:15 PM 48.4°F9.1°C 42.7°F5.9°C 81% 17.4 mph S28.0 kmh S 25.7 mph41.4 kmh 29.52 in999.7 mb 0.02 in0.5 mm 0.00 in0.0 mm 0.37 in9.4 mm
03:20 PM 48.4°F9.1°C 43.1°F6.2°C 82% 18.1 mph S29.1 kmh S 23.9 mph38.5 kmh 29.52 in999.7 mb 0.02 in0.5 mm 0.00 in0.0 mm 0.37 in9.4 mm
03:25 PM 48.0°F8.9°C 42.7°F5.9°C 82% 12.8 mph S20.6 kmh S 22.4 mph36.0 kmh 29.51 in999.3 mb 0.00 in0.0 mm 0.00 in0.0 mm 0.37 in9.4 mm
03:30 PM 48.2°F9.0°C 42.6°F5.9°C 81% 16.3 mph S26.2 kmh S 21.3 mph34.3 kmh 29.52 in999.7 mb 0.00 in0.0 mm 0.00 in0.0 mm 0.37 in9.4 mm
03:35 PM 48.2°F9.0°C 42.9°F6.1°C 82% 25.1 mph S40.4 kmh S 25.1 mph40.4 kmh 29.52 in999.7 mb 0.00 in0.0 mm 0.00 in0.0 mm 0.37 in9.4 mm
03:40 PM 48.2°F9.0°C 42.9°F6.1°C 82% 8.5 mph S13.7 kmh S 25.1 mph40.4 kmh 29.52 in999.7 mb 0.00 in0.0 mm 0.00 in0.0 mm 0.37 in9.4 mm
03:45 PM 48.4°F9.1°C 43.1°F6.2°C 82% 17.7 mph S28.5 kmh S 23.0 mph37.0 kmh 29.52 in999.7 mb 0.00 in0.0 mm 0.00 in0.0 mm 0.37 in9.4 mm
03:50 PM 48.2°F9.0°C 42.9°F6.1°C 82% 18.3 mph SSW29.5 kmh SSW 23.0 mph37.0 kmh 29.52 in999.7 mb 0.00 in0.0 mm 0.00 in0.0 mm 0.37 in9.4 mm
03:55 PM 48.2°F9.0°C 42.6°F5.9°C 81% 19.0 mph S30.6 kmh S 31.8 mph51.2 kmh 29.52 in999.7 mb 0.00 in0.0 mm 0.00 in0.0 mm 0.37 in9.4 mm
04:00 PM 48.0°F8.9°C 42.1°F5.6°C 80% 9.8 mph S15.8 kmh S 31.8 mph51.2 kmh 29.52 in999.7 mb 0.02 in0.5 mm 0.02 in0.5 mm 0.39 in9.9 mm
04:05 PM 48.0°F8.9°C 41.8°F5.4°C 79% 10.3 mph S16.6 kmh S 27.1 mph43.6 kmh 29.52 in999.7 mb 0.02 in0.5 mm 0.00 in0.0 mm 0.39 in9.9 mm
04:10 PM 48.0°F8.9°C 41.4°F5.2°C 78% 20.4 mph S32.8 kmh S 25.5 mph41.0 kmh 29.53 in1000.0 mb 0.02 in0.5 mm 0.00 in0.0 mm 0.39 in9.9 mm
04:15 PM 48.0°F8.9°C 41.4°F5.2°C 78% 15.0 mph S24.1 kmh S 25.5 mph41.0 kmh 29.52 in999.7 mb 0.02 in0.5 mm 0.00 in0.0 mm 0.39 in9.9 mm
04:20 PM 48.0°F8.9°C 41.4°F5.2°C 78% 15.7 mph S25.3 kmh S 20.6 mph33.2 kmh 29.52 in999.7 mb 0.02 in0.5 mm 0.00 in0.0 mm 0.39 in9.9 mm
04:25 PM 48.0°F8.9°C 41.8°F5.4°C 79% 8.3 mph S13.4 kmh S 19.9 mph32.0 kmh 29.52 in999.7 mb 0.02 in0.5 mm 0.00 in0.0 mm 0.39 in9.9 mm
04:30 PM 48.0°F8.9°C 41.8°F5.4°C 79% 17.9 mph S28.8 kmh S 21.0 mph33.8 kmh 29.52 in999.7 mb 0.02 in0.5 mm 0.00 in0.0 mm 0.39 in9.9 mm
04:35 PM 48.0°F8.9°C 41.8°F5.4°C 79% 12.8 mph S20.6 kmh S 24.2 mph38.9 kmh 29.53 in1000.0 mb 0.02 in0.5 mm 0.00 in0.0 mm 0.39 in9.9 mm
04:40 PM 47.8°F8.8°C 41.9°F5.5°C 80% 6.7 mph S10.8 kmh S 24.2 mph38.9 kmh 29.53 in1000.0 mb 0.02 in0.5 mm 0.00 in0.0 mm 0.39 in9.9 mm
04:45 PM 47.7°F8.7°C 42.1°F5.6°C 81% 7.8 mph SSW12.6 kmh SSW 22.8 mph36.7 kmh 29.53 in1000.0 mb 0.02 in0.5 mm 0.00 in0.0 mm 0.39 in9.9 mm
04:50 PM 47.7°F8.7°C 42.4°F5.8°C 82% 8.5 mph S13.7 kmh S 20.4 mph32.8 kmh 29.52 in999.7 mb 0.02 in0.5 mm 0.00 in0.0 mm 0.39 in9.9 mm
04:55 PM 47.7°F8.7°C 42.4°F5.8°C 82% 14.8 mph SSW23.8 kmh SSW 20.4 mph32.8 kmh 29.52 in999.7 mb 0.02 in0.5 mm 0.00 in0.0 mm 0.39 in9.9 mm
05:00 PM 47.5°F8.6°C 42.2°F5.7°C 82% 12.5 mph SSW20.1 kmh SSW 18.6 mph29.9 kmh 29.53 in1000.0 mb 0.00 in0.0 mm 0.00 in0.0 mm 0.39 in9.9 mm
05:05 PM 47.5°F8.6°C 42.2°F5.7°C 82% 11.4 mph SSW18.3 kmh SSW 17.7 mph28.5 kmh 29.53 in1000.0 mb 0.00 in0.0 mm 0.00 in0.0 mm 0.39 in9.9 mm
05:10 PM 47.3°F8.5°C 42.1°F5.6°C 82% 11.4 mph SSW18.3 kmh SSW 15.9 mph25.6 kmh 29.54 in1000.3 mb 0.00 in0.0 mm 0.00 in0.0 mm 0.39 in9.9 mm
05:15 PM 47.3°F8.5°C 42.1°F5.6°C 82% 8.7 mph S14.0 kmh S 16.3 mph26.2 kmh 29.55 in1000.7 mb 0.00 in0.0 mm 0.00 in0.0 mm 0.39 in9.9 mm
05:20 PM 47.3°F8.5°C 42.4°F5.8°C 83% 6.5 mph SSW10.5 kmh SSW 16.3 mph26.2 kmh 29.55 in1000.7 mb 0.00 in0.0 mm 0.00 in0.0 mm 0.39 in9.9 mm
05:25 PM 47.3°F8.5°C 42.4°F5.8°C 83% 5.8 mph S9.3 kmh S 13.2 mph21.2 kmh 29.56 in1001.0 mb 0.00 in0.0 mm 0.00 in0.0 mm 0.39 in9.9 mm
05:30 PM 47.3°F8.5°C 42.4°F5.8°C 83% 1.8 mph S2.9 kmh S 11.4 mph18.3 kmh 29.55 in1000.7 mb 0.00 in0.0 mm 0.00 in0.0 mm 0.39 in9.9 mm
05:35 PM 47.1°F8.4°C 42.2°F5.7°C 83% 2.5 mph S4.0 kmh S 10.1 mph16.3 kmh 29.55 in1000.7 mb 0.00 in0.0 mm 0.00 in0.0 mm 0.39 in9.9 mm
05:40 PM 47.1°F8.4°C 42.2°F5.7°C 83% 0.9 mph SSE1.4 kmh SSE 4.0 mph6.4 kmh 29.55 in1000.7 mb 0.00 in0.0 mm 0.00 in0.0 mm 0.39 in9.9 mm
05:45 PM 47.1°F8.4°C 42.5°F5.8°C 84% 2.5 mph S4.0 kmh S 4.7 mph7.6 kmh 29.55 in1000.7 mb 0.00 in0.0 mm 0.00 in0.0 mm 0.39 in9.9 mm
05:50 PM 46.9°F8.3°C 42.4°F5.8°C 84% 1.8 mph SSW2.9 kmh SSW 6.3 mph10.1 kmh 29.56 in1001.0 mb 0.00 in0.0 mm 0.00 in0.0 mm 0.39 in9.9 mm
05:55 PM 47.1°F8.4°C 42.9°F6.1°C 85% 3.8 mph SSW6.1 kmh SSW 11.6 mph18.7 kmh 29.57 in1001.4 mb 0.00 in0.0 mm 0.00 in0.0 mm 0.39 in9.9 mm
06:00 PM 47.1°F8.4°C 42.9°F6.1°C 85% 5.1 mph S8.2 kmh S 11.6 mph18.7 kmh 29.57 in1001.4 mb 0.00 in0.0 mm 0.00 in0.0 mm 0.39 in9.9 mm
06:05 PM 47.1°F8.4°C 42.9°F6.1°C 85% 7.8 mph S12.6 kmh S 13.4 mph21.6 kmh 29.57 in1001.4 mb 0.00 in0.0 mm 0.00 in0.0 mm 0.39 in9.9 mm
06:10 PM 47.1°F8.4°C 42.9°F6.1°C 85% 9.2 mph S14.8 kmh S 14.8 mph23.8 kmh 29.57 in1001.4 mb 0.00 in0.0 mm 0.00 in0.0 mm 0.39 in9.9 mm
06:15 PM 47.1°F8.4°C 42.9°F6.1°C 85% 6.5 mph S10.5 kmh S 14.8 mph23.8 kmh 29.58 in1001.7 mb 0.00 in0.0 mm 0.00 in0.0 mm 0.39 in9.9 mm
06:20 PM 47.3°F8.5°C 43.0°F6.1°C 85% 6.9 mph SSW11.1 kmh SSW 11.9 mph19.2 kmh 29.58 in1001.7 mb 0.00 in0.0 mm 0.00 in0.0 mm 0.39 in9.9 mm
06:25 PM 47.3°F8.5°C 43.0°F6.1°C 85% 2.5 mph SSW4.0 kmh SSW 14.8 mph23.8 kmh 29.58 in1001.7 mb 0.00 in0.0 mm 0.00 in0.0 mm 0.39 in9.9 mm
06:30 PM 47.5°F8.6°C 43.2°F6.2°C 85% 1.8 mph S2.9 kmh S 14.8 mph23.8 kmh 29.59 in1002.0 mb 0.00 in0.0 mm 0.00 in0.0 mm 0.39 in9.9 mm
06:35 PM 47.3°F8.5°C 42.4°F5.8°C 83% 6.3 mph S10.1 kmh S 16.8 mph27.0 kmh 29.59 in1002.0 mb 0.00 in0.0 mm 0.00 in0.0 mm 0.39 in9.9 mm
06:40 PM 47.1°F8.4°C 42.2°F5.7°C 83% 10.5 mph S16.9 kmh S 17.0 mph27.4 kmh 29.59 in1002.0 mb 0.00 in0.0 mm 0.00 in0.0 mm 0.39 in9.9 mm
06:45 PM 47.1°F8.4°C 42.2°F5.7°C 83% 8.3 mph S13.4 kmh S 18.1 mph29.1 kmh 29.59 in1002.0 mb 0.00 in0.0 mm 0.00 in0.0 mm 0.39 in9.9 mm
06:50 PM 47.1°F8.4°C 42.2°F5.7°C 83% 8.1 mph S13.0 kmh S 18.1 mph29.1 kmh 29.59 in1002.0 mb 0.00 in0.0 mm 0.00 in0.0 mm 0.39 in9.9 mm
06:55 PM 47.1°F8.4°C 42.2°F5.7°C 83% 3.8 mph S6.1 kmh S 15.4 mph24.8 kmh 29.59 in1002.0 mb 0.00 in0.0 mm 0.00 in0.0 mm 0.39 in9.9 mm
07:00 PM 46.9°F8.3°C 41.7°F5.4°C 82% 14.1 mph S22.7 kmh S 15.4 mph24.8 kmh 29.59 in1002.0 mb 0.00 in0.0 mm 0.00 in0.0 mm 0.39 in9.9 mm
07:05 PM 46.9°F8.3°C 41.7°F5.4°C 82% 9.2 mph SSW14.8 kmh SSW 17.0 mph27.4 kmh 29.59 in1002.0 mb 0.00 in0.0 mm 0.00 in0.0 mm 0.39 in9.9 mm
07:10 PM 46.8°F8.2°C 41.3°F5.2°C 81% 7.8 mph SSW12.6 kmh SSW 17.0 mph27.4 kmh 29.59 in1002.0 mb 0.00 in0.0 mm 0.00 in0.0 mm 0.39 in9.9 mm
07:15 PM 46.8°F8.2°C 41.3°F5.2°C 81% 2.5 mph SSW4.0 kmh SSW 9.8 mph15.8 kmh 29.59 in1002.0 mb 0.00 in0.0 mm 0.00 in0.0 mm 0.39 in9.9 mm
07:20 PM 46.6°F8.1°C 40.8°F4.9°C 80% 4.9 mph SSW7.9 kmh SSW 14.1 mph22.7 kmh 29.60 in1002.4 mb 0.00 in0.0 mm 0.00 in0.0 mm 0.39 in9.9 mm
07:25 PM 46.6°F8.1°C 40.5°F4.7°C 79% 6.7 mph S10.8 kmh S 14.3 mph23.0 kmh 29.60 in1002.4 mb 0.00 in0.0 mm 0.00 in0.0 mm 0.39 in9.9 mm
07:30 PM 46.6°F8.1°C 40.5°F4.7°C 79% 6.7 mph SSW10.8 kmh SSW 15.7 mph25.3 kmh 29.60 in1002.4 mb 0.00 in0.0 mm 0.00 in0.0 mm 0.39 in9.9 mm
07:35 PM 46.6°F8.1°C 40.1°F4.5°C 78% 13.6 mph SSW21.9 kmh SSW 17.0 mph27.4 kmh 29.60 in1002.4 mb 0.00 in0.0 mm 0.00 in0.0 mm 0.39 in9.9 mm
07:40 PM 46.6°F8.1°C 40.8°F4.9°C 80% 8.5 mph SSW13.7 kmh SSW 17.0 mph27.4 kmh 29.60 in1002.4 mb 0.00 in0.0 mm 0.00 in0.0 mm 0.39 in9.9 mm
07:45 PM 46.6°F8.1°C 40.8°F4.9°C 80% 8.9 mph SSW14.3 kmh SSW 16.6 mph26.7 kmh 29.59 in1002.0 mb 0.00 in0.0 mm 0.00 in0.0 mm 0.39 in9.9 mm
07:50 PM 46.2°F7.9°C 40.5°F4.7°C 80% 6.0 mph S9.7 kmh S 16.6 mph26.7 kmh 29.59 in1002.0 mb 0.00 in0.0 mm 0.00 in0.0 mm 0.39 in9.9 mm
07:55 PM 46.2°F7.9°C 40.5°F4.7°C 80% 8.3 mph S13.4 kmh S 14.1 mph22.7 kmh 29.60 in1002.4 mb 0.00 in0.0 mm 0.00 in0.0 mm 0.39 in9.9 mm
08:00 PM 46.4°F8.0°C 40.3°F4.6°C 79% 14.8 mph SSW23.8 kmh SSW 17.9 mph28.8 kmh 29.60 in1002.4 mb 0.00 in0.0 mm 0.00 in0.0 mm 0.39 in9.9 mm
08:05 PM 46.6°F8.1°C 40.5°F4.7°C 79% 16.6 mph SSW26.7 kmh SSW 17.9 mph28.8 kmh 29.61 in1002.7 mb 0.00 in0.0 mm 0.00 in0.0 mm 0.39 in9.9 mm
08:10 PM 46.6°F8.1°C 40.5°F4.7°C 79% 13.6 mph S21.9 kmh S 17.2 mph27.7 kmh 29.61 in1002.7 mb 0.00 in0.0 mm 0.00 in0.0 mm 0.39 in9.9 mm
08:15 PM 46.6°F8.1°C 40.5°F4.7°C 79% 10.5 mph S16.9 kmh S 17.2 mph27.7 kmh 29.62 in1003.0 mb 0.00 in0.0 mm 0.00 in0.0 mm 0.39 in9.9 mm
08:20 PM 46.8°F8.2°C 40.3°F4.6°C 78% 10.5 mph SSW16.9 kmh SSW 19.0 mph30.6 kmh 29.61 in1002.7 mb 0.00 in0.0 mm 0.00 in0.0 mm 0.39 in9.9 mm
08:25 PM 46.9°F8.3°C 40.4°F4.7°C 78% 3.8 mph SSW6.1 kmh SSW 19.0 mph30.6 kmh 29.61 in1002.7 mb 0.00 in0.0 mm 0.00 in0.0 mm 0.39 in9.9 mm
08:30 PM 46.8°F8.2°C 40.6°F4.8°C 79% 1.3 mph SSW2.1 kmh SSW 15.9 mph25.6 kmh 29.62 in1003.0 mb 0.00 in0.0 mm 0.00 in0.0 mm 0.39 in9.9 mm
08:35 PM 46.8°F8.2°C 40.6°F4.8°C 79% Calm Calm 9.4 mph15.1 kmh 29.62 in1003.0 mb 0.00 in0.0 mm 0.00 in0.0 mm 0.39 in9.9 mm
08:40 PM 46.6°F8.1°C 40.8°F4.9°C 80% Calm Calm 4.3 mph6.9 kmh 29.62 in1003.0 mb 0.00 in0.0 mm 0.00 in0.0 mm 0.39 in9.9 mm
08:45 PM 46.6°F8.1°C 40.8°F4.9°C 80% 1.6 mph SW2.6 kmh SW 4.3 mph6.9 kmh 29.62 in1003.0 mb 0.00 in0.0 mm 0.00 in0.0 mm 0.39 in9.9 mm
08:50 PM 46.2°F7.9°C 40.5°F4.7°C 80% Calm Calm 4.7 mph7.6 kmh 29.62 in1003.0 mb 0.00 in0.0 mm 0.00 in0.0 mm 0.39 in9.9 mm
08:55 PM 46.2°F7.9°C 40.8°F4.9°C 81% 2.9 mph SSW4.7 kmh SSW 8.9 mph14.3 kmh 29.62 in1003.0 mb 0.00 in0.0 mm 0.00 in0.0 mm 0.39 in9.9 mm
09:00 PM 46.0°F7.8°C 40.6°F4.8°C 81% 5.8 mph SW9.3 kmh SW 8.9 mph14.3 kmh 29.62 in1003.0 mb 0.00 in0.0 mm 0.00 in0.0 mm 0.39 in9.9 mm
09:05 PM 46.0°F7.8°C 40.3°F4.6°C 80% 11.6 mph SSW18.7 kmh SSW 17.0 mph27.4 kmh 29.62 in1003.0 mb 0.00 in0.0 mm 0.00 in0.0 mm 0.39 in9.9 mm
09:10 PM 46.0°F7.8°C 40.3°F4.6°C 80% 12.1 mph S19.5 kmh S 17.0 mph27.4 kmh 29.62 in1003.0 mb 0.00 in0.0 mm 0.00 in0.0 mm 0.39 in9.9 mm
09:15 PM 46.0°F7.8°C 40.6°F4.8°C 81% 8.7 mph SSW14.0 kmh SSW 16.3 mph26.2 kmh 29.62 in1003.0 mb 0.00 in0.0 mm 0.00 in0.0 mm 0.39 in9.9 mm
09:20 PM 45.7°F7.6°C 40.2°F4.6°C 81% 9.6 mph SSW15.4 kmh SSW 13.4 mph21.6 kmh 29.62 in1003.0 mb 0.00 in0.0 mm 0.00 in0.0 mm 0.39 in9.9 mm
09:25 PM 45.7°F7.6°C 40.2°F4.6°C 81% 11.0 mph SSW17.7 kmh SSW 15.9 mph25.6 kmh 29.62 in1003.0 mb 0.00 in0.0 mm 0.00 in0.0 mm 0.39 in9.9 mm
09:30 PM 45.7°F7.6°C 39.9°F4.4°C 80% 10.5 mph SSW16.9 kmh SSW 16.8 mph27.0 kmh 29.62 in1003.0 mb 0.00 in0.0 mm 0.00 in0.0 mm 0.39 in9.9 mm
09:35 PM 46.0°F7.8°C 39.9°F4.4°C 79% 12.3 mph SSW19.8 kmh SSW 16.8 mph27.0 kmh 29.62 in1003.0 mb 0.00 in0.0 mm 0.00 in0.0 mm 0.39 in9.9 mm
09:40 PM 46.2°F7.9°C 40.1°F4.5°C 79% 12.8 mph SSW20.6 kmh SSW 17.9 mph28.8 kmh 29.62 in1003.0 mb 0.00 in0.0 mm 0.00 in0.0 mm 0.39 in9.9 mm
09:45 PM 46.2°F7.9°C 39.8°F4.3°C 78% 12.1 mph SSW19.5 kmh SSW 18.3 mph29.5 kmh 29.62 in1003.0 mb 0.00 in0.0 mm 0.00 in0.0 mm 0.39 in9.9 mm
09:50 PM 46.2°F7.9°C 39.4°F4.1°C 77% 15.2 mph S24.5 kmh S 19.7 mph31.7 kmh 29.62 in1003.0 mb 0.00 in0.0 mm 0.00 in0.0 mm 0.39 in9.9 mm
09:55 PM 46.6°F8.1°C 39.4°F4.1°C 76% 16.3 mph SSW26.2 kmh SSW 20.6 mph33.2 kmh 29.62 in1003.0 mb 0.00 in0.0 mm 0.00 in0.0 mm 0.39 in9.9 mm
10:00 PM 46.6°F8.1°C 38.8°F3.8°C 74% 16.8 mph SSW27.0 kmh SSW 22.1 mph35.6 kmh 29.62 in1003.0 mb 0.00 in0.0 mm 0.00 in0.0 mm 0.39 in9.9 mm
10:05 PM 46.6°F8.1°C 39.1°F3.9°C 75% 11.0 mph SSW17.7 kmh SSW 22.4 mph36.0 kmh 29.61 in1002.7 mb 0.00 in0.0 mm 0.00 in0.0 mm 0.39 in9.9 mm
10:10 PM 46.2°F7.9°C 39.1°F3.9°C 76% 12.5 mph SSW20.1 kmh SSW 22.4 mph36.0 kmh 29.62 in1003.0 mb 0.00 in0.0 mm 0.00 in0.0 mm 0.39 in9.9 mm
10:15 PM 46.0°F7.8°C 39.3°F4.1°C 77% 11.2 mph SSW18.0 kmh SSW 21.9 mph35.2 kmh 29.62 in1003.0 mb 0.00 in0.0 mm 0.00 in0.0 mm 0.39 in9.9 mm
10:20 PM 46.0°F7.8°C 38.9°F3.8°C 76% 17.0 mph SSW27.4 kmh SSW 21.9 mph35.2 kmh 29.63 in1003.4 mb 0.00 in0.0 mm 0.00 in0.0 mm 0.39 in9.9 mm
10:25 PM 46.2°F7.9°C 39.1°F3.9°C 75% 19.7 mph S31.7 kmh S 20.8 mph33.5 kmh 29.63 in1003.4 mb 0.00 in0.0 mm 0.00 in0.0 mm 0.39 in9.9 mm
10:30 PM 46.8°F8.2°C 38.9°F3.8°C 74% 16.6 mph S26.7 kmh S 23.5 mph37.8 kmh 29.63 in1003.4 mb 0.00 in0.0 mm 0.00 in0.0 mm 0.39 in9.9 mm
10:35 PM 46.8°F8.2°C 38.9°F3.8°C 74% 15.7 mph S25.3 kmh S 23.5 mph37.8 kmh 29.63 in1003.4 mb 0.00 in0.0 mm 0.00 in0.0 mm 0.39 in9.9 mm
10:40 PM 46.9°F8.3°C 38.7°F3.7°C 73% 16.3 mph S26.2 kmh S 22.1 mph35.6 kmh 29.63 in1003.4 mb 0.00 in0.0 mm 0.00 in0.0 mm 0.39 in9.9 mm
10:45 PM 46.9°F8.3°C 38.7°F3.7°C 73% 9.8 mph S15.8 kmh S 20.8 mph33.5 kmh 29.64 in1003.7 mb 0.00 in0.0 mm 0.00 in0.0 mm 0.39 in9.9 mm
10:50 PM 46.8°F8.2°C 38.9°F3.8°C 74% 6.0 mph S9.7 kmh S 16.8 mph27.0 kmh 29.64 in1003.7 mb 0.00 in0.0 mm 0.00 in0.0 mm 0.39 in9.9 mm
10:55 PM 46.6°F8.1°C 38.8°F3.8°C 74% 5.1 mph S8.2 kmh S 12.1 mph19.5 kmh 29.64 in1003.7 mb 0.00 in0.0 mm 0.00 in0.0 mm 0.39 in9.9 mm
11:00 PM 46.4°F8.0°C 38.9°F3.8°C 75% 3.6 mph S5.8 kmh S 9.2 mph14.8 kmh 29.64 in1003.7 mb 0.00 in0.0 mm 0.00 in0.0 mm 0.39 in9.9 mm
11:05 PM 46.2°F7.9°C 39.1°F3.9°C 76% 10.5 mph S16.9 kmh S 11.2 mph18.0 kmh 29.63 in1003.4 mb 0.00 in0.0 mm 0.00 in0.0 mm 0.39 in9.9 mm
11:10 PM 46.2°F7.9°C 39.1°F3.9°C 76% 5.1 mph SSW8.2 kmh SSW 13.0 mph20.9 kmh 29.63 in1003.4 mb 0.00 in0.0 mm 0.00 in0.0 mm 0.39 in9.9 mm
11:15 PM 46.2°F7.9°C 39.1°F3.9°C 76% 8.1 mph SSW13.0 kmh SSW 13.0 mph20.9 kmh 29.63 in1003.4 mb 0.00 in0.0 mm 0.00 in0.0 mm 0.39 in9.9 mm
11:20 PM 46.2°F7.9°C 39.4°F4.1°C 77% 8.9 mph SSW14.3 kmh SSW 12.3 mph19.8 kmh 29.63 in1003.4 mb 0.00 in0.0 mm 0.00 in0.0 mm 0.39 in9.9 mm
11:25 PM 46.2°F7.9°C 39.4°F4.1°C 77% 8.1 mph SSW13.0 kmh SSW 11.9 mph19.2 kmh 29.63 in1003.4 mb 0.00 in0.0 mm 0.00 in0.0 mm 0.39 in9.9 mm
11:30 PM 46.2°F7.9°C 39.8°F4.3°C 78% 10.3 mph SSW16.6 kmh SSW 13.9 mph22.4 kmh 29.64 in1003.7 mb 0.00 in0.0 mm 0.00 in0.0 mm 0.39 in9.9 mm
11:35 PM 46.2°F7.9°C 39.8°F4.3°C 78% 7.6 mph SSW12.2 kmh SSW 13.9 mph22.4 kmh 29.64 in1003.7 mb 0.00 in0.0 mm 0.00 in0.0 mm 0.39 in9.9 mm
11:40 PM 46.2°F7.9°C 39.8°F4.3°C 78% 6.3 mph SSW10.1 kmh SSW 12.8 mph20.6 kmh 29.63 in1003.4 mb 0.00 in0.0 mm 0.00 in0.0 mm 0.39 in9.9 mm
11:45 PM 46.2°F7.9°C 40.1°F4.5°C 79% 4.0 mph SSW6.4 kmh SSW 12.8 mph20.6 kmh 29.64 in1003.7 mb 0.00 in0.0 mm 0.00 in0.0 mm 0.39 in9.9 mm
11:50 PM 46.2°F7.9°C 39.8°F4.3°C 78% 8.7 mph SSW14.0 kmh SSW 12.8 mph20.6 kmh 29.63 in1003.4 mb 0.00 in0.0 mm 0.00 in0.0 mm 0.39 in9.9 mm
11:55 PM 46.2°F7.9°C 39.8°F4.3°C 78% 3.1 mph SSW5.0 kmh SSW 12.3 mph19.8 kmh 29.63 in1003.4 mb 0.00 in0.0 mm 0.00 in0.0 mm 0.39 in9.9 mm